createdAt,value
2019-03-06T00:00:53.038Z,5.90
2019-03-06T00:03:35.323Z,6.23
2019-03-06T00:06:29.529Z,4.53
2019-03-06T00:10:21.481Z,5.27
2019-03-06T00:13:00.593Z,3.90
2019-03-06T00:15:59.476Z,6.37
2019-03-06T00:18:49.054Z,6.30
2019-03-06T00:21:37.611Z,7.10
2019-03-06T00:24:27.592Z,5.43
2019-03-06T00:28:02.024Z,5.10
2019-03-06T00:30:53.858Z,5.47
2019-03-06T00:33:47.386Z,4.97
2019-03-06T00:36:43.840Z,6.57
2019-03-06T00:39:22.669Z,4.80
2019-03-06T00:42:05.255Z,11.07
2019-03-06T00:44:59.766Z,7.50
2019-03-06T00:47:53.600Z,5.83
2019-03-06T00:50:30.139Z,7.03
2019-03-06T00:53:04.453Z,6.17
2019-03-06T00:55:45.260Z,7.17
2019-03-06T00:58:17.433Z,6.13
2019-03-06T01:01:09.859Z,6.17
2019-03-06T01:04:04.489Z,6.40
2019-03-06T01:06:41.299Z,7.37
2019-03-06T01:09:33.783Z,6.90
2019-03-06T01:12:21.493Z,6.20
2019-03-06T01:15:02.014Z,10.20
2019-03-06T01:17:48.710Z,7.90
2019-03-06T01:21:01.807Z,7.40
2019-03-06T01:23:48.758Z,7.37
2019-03-06T01:26:30.232Z,11.00
2019-03-06T01:29:29.519Z,7.67
2019-03-06T01:32:27.571Z,7.17
2019-03-06T01:35:44.622Z,8.67
2019-03-06T01:38:48.547Z,7.97
2019-03-06T01:41:27.469Z,9.60
2019-03-06T01:44:31.512Z,8.17
2019-03-06T01:47:17.848Z,8.27
2019-03-06T01:49:56.835Z,7.07
2019-03-06T01:52:31.735Z,7.43
2019-03-06T01:55:13.206Z,8.40
2019-03-06T01:58:01.467Z,8.87
2019-03-06T02:01:00.615Z,9.73
2019-03-06T02:03:39.322Z,11.63
2019-03-06T02:06:42.985Z,20.23
2019-03-06T02:09:26.727Z,19.43
2019-03-06T02:12:18.575Z,22.80
2019-03-06T02:15:01.872Z,34.40
2019-03-06T02:17:57.538Z,30.53
2019-03-06T02:20:40.321Z,53.67
2019-03-06T02:23:22.940Z,36.10
2019-03-06T02:30:06.444Z,53.73
2019-03-06T02:33:07.181Z,41.47
2019-03-06T02:36:02.911Z,76.87
2019-03-06T02:39:00.341Z,111.17
2019-03-06T02:41:35.672Z,83.97
2019-03-06T02:44:49.780Z,55.97
2019-03-06T02:47:45.653Z,114.40
2019-03-06T02:51:36.434Z,54.00
2019-03-06T02:54:11.012Z,24.20
2019-03-06T02:56:51.646Z,129.93
2019-03-06T02:59:34.825Z,136.87
2019-03-06T03:02:13.686Z,86.60
2019-03-06T03:05:21.972Z,68.90
2019-03-06T03:08:01.882Z,52.77
2019-03-06T03:10:49.846Z,112.53
2019-03-06T03:13:33.439Z,61.00
2019-03-06T03:16:19.222Z,48.57
2019-03-06T03:19:06.165Z,36.17
2019-03-06T03:22:04.468Z,46.43
2019-03-06T03:24:36.875Z,90.93
2019-03-06T03:27:24.508Z,53.00
2019-03-06T03:30:09.357Z,62.47
2019-03-06T03:33:03.289Z,23.10
2019-03-06T03:36:08.276Z,54.97
2019-03-06T03:39:02.867Z,27.83
2019-03-06T03:42:04.569Z,12.60
2019-03-06T03:45:07.317Z,25.83
2019-03-06T03:47:55.744Z,47.10
2019-03-06T03:51:09.758Z,62.77
2019-03-06T03:53:43.504Z,36.20
2019-03-06T03:56:35.133Z,21.00
2019-03-06T03:59:31.721Z,29.87
2019-03-06T04:02:56.971Z,40.23
2019-03-06T04:05:55.636Z,35.37
2019-03-06T04:08:53.370Z,54.90
2019-03-06T04:11:31.170Z,35.90
2019-03-06T04:14:14.465Z,33.43
2019-03-06T04:20:52.062Z,46.47
2019-03-06T04:23:52.430Z,58.93
2019-03-06T04:26:53.932Z,73.00
2019-03-06T04:29:56.768Z,26.93
2019-03-06T04:32:50.127Z,103.73
2019-03-06T04:35:50.515Z,25.70
2019-03-06T04:39:43.075Z,51.67
2019-03-06T04:43:15.194Z,102.10
2019-03-06T04:54:16.086Z,70.07
2019-03-06T05:01:34.099Z,148.73
2019-03-06T05:04:36.306Z,41.73
2019-03-06T05:08:01.079Z,147.77
2019-03-06T05:11:53.452Z,94.90
2019-03-06T05:18:30.532Z,133.27
2019-03-06T05:24:49.215Z,36.57
2019-03-06T05:27:41.264Z,28.47
2019-03-06T05:30:25.967Z,37.77
2019-03-06T05:33:18.594Z,35.67
2019-03-06T05:36:19.028Z,72.13
2019-03-06T05:39:48.736Z,60.67
2019-03-06T05:42:28.179Z,148.53
2019-03-06T05:45:09.248Z,56.87
2019-03-06T05:48:05.577Z,76.97
2019-03-06T05:51:09.180Z,69.50
2019-03-06T05:53:39.597Z,69.43
2019-03-06T05:56:15.270Z,53.63
2019-03-06T05:59:23.788Z,45.50
2019-03-06T06:02:40.490Z,73.90
2019-03-06T06:05:55.139Z,75.07
2019-03-06T06:08:28.968Z,44.07
2019-03-06T06:11:17.102Z,95.47
2019-03-06T06:13:53.373Z,81.43
2019-03-06T06:16:23.951Z,64.97
2019-03-06T06:19:01.843Z,41.67
2019-03-06T06:22:02.773Z,61.37
2019-03-06T06:24:34.509Z,35.40
2019-03-06T06:27:07.716Z,24.40
2019-03-06T06:29:37.501Z,27.10
2019-03-06T06:32:11.657Z,50.30
2019-03-06T06:34:40.115Z,46.53
2019-03-06T06:37:09.055Z,50.03
2019-03-06T06:39:38.363Z,45.30
2019-03-06T06:42:09.544Z,43.43
2019-03-06T06:44:41.347Z,28.10
2019-03-06T06:47:11.908Z,29.97
2019-03-06T06:49:40.132Z,29.63
2019-03-06T06:52:48.445Z,42.30
2019-03-06T06:56:06.288Z,42.83
2019-03-06T06:58:57.740Z,28.50
2019-03-06T07:02:01.650Z,21.93
2019-03-06T07:05:25.013Z,44.00
2019-03-06T07:08:27.457Z,31.30
2019-03-06T07:11:17.414Z,37.07
2019-03-06T07:14:04.748Z,20.90
2019-03-06T07:16:55.168Z,43.10
2019-03-06T07:19:45.115Z,45.80
2019-03-06T07:22:23.680Z,38.33
2019-03-06T07:25:17.472Z,28.90
2019-03-06T07:28:16.820Z,43.37
2019-03-06T07:31:01.561Z,36.67
2019-03-06T07:33:47.274Z,38.50
2019-03-06T07:36:42.292Z,31.60
2019-03-06T07:39:20.537Z,28.43
2019-03-06T07:42:16.898Z,47.73
2019-03-06T07:45:40.947Z,20.27
2019-03-06T07:48:28.006Z,23.30
2019-03-06T07:51:07.390Z,18.20
2019-03-06T07:53:56.096Z,19.80
2019-03-06T07:56:52.309Z,16.60
2019-03-06T07:59:19.920Z,16.93
2019-03-06T08:01:56.688Z,20.00
2019-03-06T08:04:24.336Z,22.13
2019-03-06T08:06:55.456Z,21.17
2019-03-06T08:09:23.485Z,29.53
2019-03-06T08:12:09.372Z,29.70
2019-03-06T08:15:03.138Z,21.60
2019-03-06T08:18:02.085Z,21.93
2019-03-06T08:20:36.324Z,19.17
2019-03-06T08:23:29.448Z,16.80
2019-03-06T08:25:57.288Z,15.30
2019-03-06T08:28:25.492Z,15.17
2019-03-06T08:30:57.907Z,12.93
2019-03-06T08:33:26.374Z,16.30
2019-03-06T08:36:00.510Z,12.17
2019-03-06T08:38:28.088Z,15.53
2019-03-06T08:41:03.955Z,12.67
2019-03-06T08:43:25.001Z,11.27
2019-03-06T08:46:23.907Z,16.70
2019-03-06T08:49:14.015Z,13.43
2019-03-06T08:51:52.600Z,13.80
2019-03-06T08:54:34.437Z,16.53
2019-03-06T08:57:13.250Z,15.53
2019-03-06T09:00:04.201Z,16.30
2019-03-06T09:03:03.219Z,13.33
2019-03-06T09:05:47.428Z,14.33
2019-03-06T09:08:29.457Z,17.00
2019-03-06T09:11:04.383Z,12.40
2019-03-06T09:13:49.493Z,17.70
2019-03-06T09:16:40.197Z,13.80
2019-03-06T09:19:23.244Z,15.17
2019-03-06T09:22:15.451Z,12.53
2019-03-06T09:25:16.169Z,15.20
2019-03-06T09:27:58.654Z,14.03
2019-03-06T09:30:53.892Z,11.77
2019-03-06T09:33:29.704Z,11.17
2019-03-06T09:36:25.762Z,12.37
2019-03-06T09:39:00.193Z,9.10
2019-03-06T09:41:47.212Z,7.90
2019-03-06T09:44:28.788Z,7.03
2019-03-06T09:47:14.651Z,6.30
2019-03-06T09:49:58.606Z,6.17
2019-03-06T09:52:46.188Z,9.33
2019-03-06T09:55:32.202Z,6.57
2019-03-06T09:58:22.063Z,5.70
2019-03-06T10:01:10.284Z,9.17
2019-03-06T10:04:06.333Z,5.30
2019-03-06T10:06:53.869Z,4.67
2019-03-06T10:09:38.545Z,7.07
2019-03-06T10:12:21.878Z,8.30
2019-03-06T10:15:25.385Z,6.33
2019-03-06T10:18:06.743Z,7.07
2019-03-06T10:20:35.391Z,6.00
2019-03-06T10:23:04.149Z,9.57
2019-03-06T10:25:32.766Z,7.60
2019-03-06T10:28:06.254Z,7.73
2019-03-06T10:30:31.341Z,7.50
2019-03-06T10:32:59.744Z,6.73
2019-03-06T10:35:28.220Z,6.10
2019-03-06T10:37:56.507Z,3.50
2019-03-06T10:40:24.539Z,4.27
2019-03-06T10:42:53.411Z,5.73
2019-03-06T10:45:21.388Z,4.03
2019-03-06T10:47:49.622Z,2.53
2019-03-06T10:50:26.046Z,1.60
2019-03-06T10:52:47.653Z,2.73
2019-03-06T10:55:15.644Z,1.60
2019-03-06T10:57:43.366Z,2.50
2019-03-06T11:00:18.881Z,2.60
2019-03-06T11:02:47.540Z,3.20
2019-03-06T11:05:28.435Z,8.40
2019-03-06T11:07:57.435Z,7.23
2019-03-06T11:10:26.307Z,2.13
2019-03-06T11:12:56.321Z,6.23
2019-03-06T11:15:24.373Z,14.10
2019-03-06T11:17:54.189Z,13.20
2019-03-06T11:20:25.694Z,10.30
2019-03-06T11:22:54.650Z,4.73
2019-03-06T11:25:23.243Z,8.00
2019-03-06T11:28:11.209Z,5.57
2019-03-06T11:30:51.832Z,4.77
2019-03-06T11:33:43.232Z,3.30
2019-03-06T11:36:14.772Z,4.10
2019-03-06T11:39:38.219Z,3.20
2019-03-06T11:42:14.104Z,2.37
2019-03-06T11:44:43.022Z,2.80
2019-03-06T11:47:11.667Z,2.10
2019-03-06T11:49:40.732Z,2.20
2019-03-06T11:52:12.781Z,1.67
2019-03-06T11:54:41.037Z,2.23
2019-03-06T11:57:09.986Z,1.80
2019-03-06T11:59:40.568Z,2.83
2019-03-06T12:02:10.947Z,1.70
2019-03-06T12:04:41.257Z,1.53
2019-03-06T12:07:10.589Z,1.60
2019-03-06T12:09:40.312Z,1.53
2019-03-06T12:12:09.153Z,1.30
2019-03-06T12:14:39.276Z,2.37
2019-03-06T12:17:21.488Z,1.87
2019-03-06T12:19:57.632Z,2.13
2019-03-06T12:22:30.329Z,2.27
2019-03-06T12:25:00.898Z,3.67
2019-03-06T12:27:45.763Z,1.73
2019-03-06T12:30:19.233Z,2.57
2019-03-06T12:33:28.132Z,1.57
2019-03-06T12:35:59.193Z,1.60
2019-03-06T12:38:31.827Z,1.97
2019-03-06T12:41:12.664Z,3.90
2019-03-06T12:43:39.489Z,3.50
2019-03-06T12:46:28.327Z,1.97
2019-03-06T12:49:04.171Z,1.70
2019-03-06T12:51:36.195Z,2.13
2019-03-06T12:54:09.375Z,1.63
2019-03-06T12:57:18.297Z,5.50
2019-03-06T12:59:52.887Z,1.87
2019-03-06T13:02:31.866Z,2.60
2019-03-06T13:05:05.391Z,1.83
2019-03-06T13:07:34.396Z,3.53
2019-03-06T13:10:19.061Z,2.13
2019-03-06T13:12:54.799Z,1.70
2019-03-06T13:15:35.933Z,1.40
2019-03-06T13:18:10.627Z,2.20
2019-03-06T13:20:42.874Z,1.97
2019-03-06T13:23:16.469Z,5.20
2019-03-06T13:25:51.231Z,1.80
2019-03-06T13:28:24.091Z,4.20
2019-03-06T13:30:59.228Z,2.07
2019-03-06T13:33:55.246Z,2.90
2019-03-06T13:36:31.229Z,2.53
2019-03-06T13:39:06.619Z,1.40
2019-03-06T13:41:34.841Z,1.60
2019-03-06T13:44:13.996Z,3.60
2019-03-06T13:46:45.472Z,1.30
2019-03-06T13:49:19.780Z,2.40
2019-03-06T13:51:51.915Z,1.97
2019-03-06T13:54:24.139Z,2.30
2019-03-06T13:56:56.124Z,1.53
2019-03-06T13:59:30.616Z,2.17
2019-03-06T14:02:02.883Z,1.73
2019-03-06T14:04:46.050Z,1.63
2019-03-06T14:07:22.161Z,1.77
2019-03-06T14:09:56.561Z,1.63
2019-03-06T14:12:33.530Z,1.87
2019-03-06T14:15:07.782Z,1.70
2019-03-06T14:17:38.203Z,2.37
2019-03-06T14:20:07.863Z,1.70
2019-03-06T14:22:40.816Z,2.07
2019-03-06T14:25:16.877Z,2.40
2019-03-06T14:27:49.271Z,4.67
2019-03-06T14:30:17.735Z,3.10
2019-03-06T14:32:46.953Z,1.80
2019-03-06T14:35:20.595Z,2.93
2019-03-06T14:37:49.268Z,3.50
2019-03-06T14:40:26.326Z,4.03
2019-03-06T14:42:55.015Z,2.13
2019-03-06T14:45:23.117Z,1.87
2019-03-06T14:47:51.831Z,3.40
2019-03-06T14:50:25.221Z,2.37
2019-03-06T14:52:57.573Z,2.80
2019-03-06T14:55:25.598Z,3.50
2019-03-06T14:57:55.793Z,3.00
2019-03-06T15:00:23.745Z,5.47
2019-03-06T15:02:51.707Z,2.23
2019-03-06T15:05:20.316Z,3.57
2019-03-06T15:07:48.445Z,3.20
2019-03-06T15:10:16.388Z,3.57
2019-03-06T15:12:44.812Z,3.07
2019-03-06T15:15:13.929Z,2.77
2019-03-06T15:17:42.858Z,3.03
2019-03-06T15:20:17.673Z,5.10
2019-03-06T15:22:46.901Z,3.50
2019-03-06T15:25:21.825Z,3.00
2019-03-06T15:27:53.944Z,2.90
2019-03-06T15:30:29.978Z,2.83
2019-03-06T15:33:02.124Z,4.53
2019-03-06T15:35:37.092Z,4.37
2019-03-06T15:38:11.039Z,3.80
2019-03-06T15:40:44.796Z,3.37
2019-03-06T15:43:16.763Z,4.07
2019-03-06T15:45:47.415Z,3.40
2019-03-06T15:48:17.465Z,3.23
2019-03-06T15:50:45.746Z,6.57
2019-03-06T15:53:24.155Z,2.73
2019-03-06T15:55:48.956Z,3.20
2019-03-06T15:58:21.158Z,3.20
2019-03-06T16:00:49.467Z,3.33
2019-03-06T16:03:18.163Z,2.97
2019-03-06T16:05:46.517Z,5.47
2019-03-06T16:08:20.689Z,4.30
2019-03-06T16:10:49.050Z,4.30
2019-03-06T16:13:16.853Z,4.13
2019-03-06T16:16:08.381Z,3.97
2019-03-06T16:18:37.615Z,3.53
2019-03-06T16:21:08.462Z,4.37
2019-03-06T16:23:37.177Z,6.43
2019-03-06T16:26:18.504Z,5.10
2019-03-06T16:28:48.654Z,5.23
2019-03-06T16:31:18.732Z,9.30
2019-03-06T16:33:47.281Z,9.00
2019-03-06T16:36:41.170Z,9.90
2019-03-06T16:47:08.745Z,6.67
2019-03-06T16:50:13.463Z,5.37
2019-03-06T16:53:10.970Z,5.60
2019-03-06T16:57:02.239Z,5.70
2019-03-06T17:00:13.981Z,7.50
2019-03-06T17:03:24.244Z,9.53
2019-03-06T17:06:46.814Z,9.47
2019-03-06T17:09:33.715Z,6.23
2019-03-06T17:13:23.687Z,8.13
2019-03-06T17:16:15.040Z,3.60
2019-03-06T17:18:52.738Z,7.00
2019-03-06T17:21:24.006Z,3.37
2019-03-06T17:23:57.193Z,5.50
2019-03-06T17:26:41.753Z,5.33
2019-03-06T17:29:25.201Z,8.80
2019-03-06T17:31:55.155Z,5.40
2019-03-06T17:34:33.607Z,2.97
2019-03-06T17:37:10.228Z,5.37
2019-03-06T17:40:40.553Z,5.60
2019-03-06T17:43:38.999Z,5.73
2019-03-06T17:47:00.712Z,2.93
2019-03-06T17:49:30.917Z,5.00
2019-03-06T17:52:37.956Z,4.67
2019-03-06T17:55:15.702Z,5.07
2019-03-06T17:57:59.933Z,2.47
2019-03-06T18:00:52.914Z,3.90
2019-03-06T18:06:40.764Z,6.97
2019-03-06T18:09:17.951Z,2.90
2019-03-06T18:11:48.694Z,5.07
2019-03-06T18:14:18.848Z,7.40
2019-03-06T18:16:46.647Z,5.63
2019-03-06T18:19:23.842Z,3.80
2019-03-06T18:21:51.694Z,4.47
2019-03-06T18:24:27.533Z,4.50
2019-03-06T18:26:56.459Z,5.23
2019-03-06T18:29:24.843Z,8.10
2019-03-06T18:31:53.913Z,8.30
2019-03-06T18:34:22.355Z,6.53
2019-03-06T18:36:51.664Z,5.83
2019-03-06T18:39:20.763Z,5.83
2019-03-06T18:41:53.547Z,5.20
2019-03-06T18:44:22.046Z,7.23
2019-03-06T18:47:03.640Z,7.70
2019-03-06T18:49:32.252Z,7.37
2019-03-06T18:52:00.978Z,6.77
2019-03-06T18:54:31.991Z,8.90
2019-03-06T18:57:13.281Z,7.70
2019-03-06T18:59:50.378Z,7.90
2019-03-06T19:02:24.789Z,8.37
2019-03-06T19:04:58.564Z,11.50
2019-03-06T19:07:28.381Z,7.97
2019-03-06T19:09:56.630Z,7.33
2019-03-06T19:12:27.802Z,10.70
2019-03-06T19:14:55.675Z,10.63
2019-03-06T19:17:28.767Z,11.53
2019-03-06T19:20:06.055Z,11.97
2019-03-06T19:22:37.053Z,16.10
2019-03-06T19:25:05.379Z,19.17
2019-03-06T19:27:33.066Z,18.90
2019-03-06T19:30:12.520Z,15.97
2019-03-06T19:32:46.004Z,12.83
2019-03-06T19:35:14.919Z,14.27
2019-03-06T19:37:42.634Z,14.27
2019-03-06T19:40:12.568Z,13.50
2019-03-06T19:42:40.517Z,14.50
2019-03-06T19:45:09.622Z,14.93
2019-03-06T19:47:37.962Z,17.57
2019-03-06T19:50:09.301Z,20.13
2019-03-06T19:52:37.044Z,18.87
2019-03-06T19:55:04.953Z,13.37
2019-03-06T19:57:50.521Z,20.00
2019-03-06T20:00:18.559Z,15.43
2019-03-06T20:02:48.196Z,15.20
2019-03-06T20:05:16.366Z,15.33
2019-03-06T20:07:43.978Z,20.90
2019-03-06T20:10:13.072Z,29.60
2019-03-06T20:12:40.636Z,14.70
2019-03-06T20:15:09.566Z,12.43
2019-03-06T20:17:37.130Z,11.80
2019-03-06T20:20:05.497Z,10.57
2019-03-06T20:22:33.304Z,16.60
2019-03-06T20:25:02.397Z,13.23
2019-03-06T20:27:30.024Z,12.73
2019-03-06T20:29:57.674Z,16.10
2019-03-06T20:32:25.419Z,15.53
2019-03-06T20:34:54.105Z,16.80
2019-03-06T20:37:21.913Z,15.90
2019-03-06T20:39:49.600Z,17.03
2019-03-06T20:42:17.275Z,17.67
2019-03-06T20:44:45.481Z,15.73
2019-03-06T20:47:13.345Z,14.33
2019-03-06T20:49:40.992Z,13.73
2019-03-06T20:52:08.593Z,13.10
2019-03-06T20:54:36.179Z,13.33
2019-03-06T20:57:03.948Z,17.27
2019-03-06T20:59:31.810Z,13.23
2019-03-06T21:02:00.133Z,13.97
2019-03-06T21:04:28.343Z,13.70
2019-03-06T21:06:56.109Z,15.00
2019-03-06T21:09:24.438Z,15.60
2019-03-06T21:11:52.277Z,13.63
2019-03-06T21:14:20.078Z,20.30
2019-03-06T21:16:48.283Z,14.80
2019-03-06T21:19:16.747Z,16.63
2019-03-06T21:21:48.600Z,14.80
2019-03-06T21:24:16.252Z,14.40
2019-03-06T21:26:45.346Z,11.40
2019-03-06T21:29:12.945Z,13.33
2019-03-06T21:31:40.503Z,14.03
2019-03-06T21:34:08.901Z,16.73
2019-03-06T21:36:37.143Z,17.60
2019-03-06T21:39:18.484Z,30.23
2019-03-06T21:41:46.159Z,20.70
2019-03-06T21:44:13.724Z,18.93
2019-03-06T21:46:41.489Z,18.37
2019-03-06T21:49:09.651Z,15.13
2019-03-06T21:51:37.196Z,12.97
2019-03-06T21:54:04.833Z,14.67
2019-03-06T21:56:32.646Z,15.90
2019-03-06T21:59:00.407Z,17.33
2019-03-06T22:01:28.126Z,18.93
2019-03-06T22:03:58.315Z,16.87
2019-03-06T22:06:25.812Z,16.77
2019-03-06T22:08:53.459Z,17.23
2019-03-06T22:11:22.875Z,17.70
2019-03-06T22:13:53.535Z,17.13
2019-03-06T22:16:21.523Z,17.37
2019-03-06T22:18:49.526Z,19.87
2019-03-06T22:21:17.113Z,16.17
2019-03-06T22:23:44.649Z,14.00
2019-03-06T22:26:12.401Z,12.57
2019-03-06T22:28:40.221Z,16.53
2019-03-06T22:31:08.722Z,14.53
2019-03-06T22:33:36.209Z,18.90
2019-03-06T22:36:05.635Z,10.77
2019-03-06T22:38:36.835Z,14.50
2019-03-06T22:41:04.800Z,13.70
2019-03-06T22:43:36.408Z,12.00
2019-03-06T22:46:09.341Z,12.30
2019-03-06T22:48:37.390Z,12.67
2019-03-06T22:51:04.949Z,12.93
2019-03-06T22:53:32.838Z,9.93
2019-03-06T22:56:00.376Z,12.47
2019-03-06T22:59:53.730Z,15.97
2019-03-06T23:05:55.879Z,12.17
2019-03-06T23:08:25.645Z,11.43
2019-03-06T23:10:59.921Z,10.20
2019-03-06T23:13:46.071Z,12.00
2019-03-06T23:16:24.838Z,14.13
2019-03-06T23:19:03.291Z,11.67
2019-03-06T23:21:33.293Z,13.33
2019-03-06T23:24:02.761Z,18.83
2019-03-06T23:26:42.538Z,13.87
2019-03-06T23:29:08.056Z,18.47
2019-03-06T23:31:40.102Z,14.17
2019-03-06T23:34:12.199Z,14.97
2019-03-06T23:36:47.014Z,15.43
2019-03-06T23:39:17.607Z,12.57
2019-03-06T23:41:56.166Z,12.43
2019-03-06T23:44:42.154Z,11.97
2019-03-06T23:47:12.570Z,13.60
2019-03-06T23:49:41.695Z,11.77
2019-03-06T23:52:22.037Z,11.37
2019-03-06T23:54:54.080Z,9.17
2019-03-06T23:57:23.717Z,10.03
2019-03-06T23:59:53.637Z,10.50
